createdAt,value
2023-05-21T00:01:29.479Z,15.10
2023-05-21T00:03:58.976Z,15.90
2023-05-21T00:06:29.162Z,16.95
2023-05-21T00:08:58.324Z,13.65
2023-05-21T00:11:27.514Z,15.65
2023-05-21T00:13:56.519Z,16.10
2023-05-21T00:16:25.947Z,15.35
2023-05-21T00:18:56.030Z,17.45
2023-05-21T00:21:27.636Z,16.02
2023-05-21T00:23:58.140Z,16.27
2023-05-21T00:26:27.474Z,15.95
2023-05-21T00:28:56.384Z,16.48
2023-05-21T00:31:25.430Z,17.10
2023-05-21T00:33:54.418Z,17.77
2023-05-21T00:36:25.214Z,16.55
2023-05-21T00:38:54.492Z,18.33
2023-05-21T00:41:24.714Z,18.70
2023-05-21T00:43:54.435Z,13.05
2023-05-21T00:46:24.028Z,15.70
2023-05-21T00:48:53.287Z,13.30
2023-05-21T00:51:23.289Z,16.45
2023-05-21T00:53:54.076Z,18.10
2023-05-21T00:56:24.233Z,18.58
2023-05-21T00:58:56.180Z,15.60
2023-05-21T01:01:27.634Z,15.25
2023-05-21T01:03:59.256Z,16.73
2023-05-21T01:06:28.252Z,14.35
2023-05-21T01:09:00.583Z,14.93
2023-05-21T01:11:35.496Z,16.83
2023-05-21T01:14:04.547Z,14.80
2023-05-21T01:16:33.835Z,15.88
2023-05-21T01:19:04.954Z,13.70
2023-05-21T01:21:37.607Z,17.23
2023-05-21T01:24:07.107Z,16.47
2023-05-21T01:26:40.192Z,15.55
2023-05-21T01:29:14.581Z,16.48
2023-05-21T01:32:01.543Z,15.30
2023-05-21T01:34:59.670Z,16.83
2023-05-21T01:37:44.022Z,15.77
2023-05-21T01:40:28.607Z,20.25
2023-05-21T01:42:57.988Z,17.42
2023-05-21T01:45:27.615Z,18.60
2023-05-21T01:47:57.989Z,16.15
2023-05-21T01:50:28.117Z,18.30
2023-05-21T01:53:02.481Z,15.50
2023-05-21T01:55:32.272Z,17.70
2023-05-21T01:58:02.434Z,12.88
2023-05-21T02:00:33.826Z,13.30
2023-05-21T02:03:02.921Z,17.05
2023-05-21T02:05:32.074Z,13.90
2023-05-21T02:08:01.580Z,13.20
2023-05-21T02:10:30.658Z,16.55
2023-05-21T02:13:00.857Z,14.63
2023-05-21T02:15:29.812Z,17.63
2023-05-21T02:17:59.954Z,13.65
2023-05-21T02:20:29.022Z,16.30
2023-05-21T02:22:58.062Z,17.35
2023-05-21T02:25:27.238Z,15.98
2023-05-21T02:27:58.205Z,16.52
2023-05-21T02:30:27.226Z,15.98
2023-05-21T02:32:57.212Z,13.52
2023-05-21T02:35:26.682Z,13.90
2023-05-21T02:37:55.865Z,17.45
2023-05-21T02:40:26.741Z,15.63
2023-05-21T02:42:55.732Z,17.20
2023-05-21T02:45:24.722Z,16.65
2023-05-21T02:47:56.062Z,14.95
2023-05-21T02:50:25.453Z,15.85
2023-05-21T02:52:54.389Z,16.38
2023-05-21T02:55:24.235Z,17.00
2023-05-21T02:57:53.249Z,15.02
2023-05-21T03:00:22.588Z,14.88
2023-05-21T03:02:51.572Z,15.52
2023-05-21T03:05:23.864Z,15.30
2023-05-21T03:07:52.927Z,15.70
2023-05-21T03:10:22.136Z,13.63
2023-05-21T03:12:51.210Z,16.75
2023-05-21T03:15:25.366Z,16.05
2023-05-21T03:17:55.761Z,15.57
2023-05-21T03:20:24.879Z,14.65
2023-05-21T03:22:54.380Z,16.00
2023-05-21T03:25:23.407Z,14.73
2023-05-21T03:27:52.475Z,16.67
2023-05-21T03:30:21.558Z,15.05
2023-05-21T03:32:51.236Z,13.50
2023-05-21T03:35:20.281Z,14.20
2023-05-21T03:37:49.272Z,16.00
2023-05-21T03:40:18.305Z,14.68
2023-05-21T03:42:47.278Z,12.75
2023-05-21T03:45:16.256Z,12.38
2023-05-21T03:47:45.383Z,14.75
2023-05-21T03:50:14.458Z,15.77
2023-05-21T03:52:43.502Z,14.85
2023-05-21T03:55:12.635Z,18.08
2023-05-21T03:57:41.781Z,15.63
2023-05-21T04:00:11.531Z,15.15
2023-05-21T04:02:40.664Z,15.73
2023-05-21T04:05:09.878Z,15.88
2023-05-21T04:07:39.930Z,15.68
2023-05-21T04:10:09.225Z,13.70
2023-05-21T04:12:38.280Z,15.82
2023-05-21T04:15:07.601Z,18.05
2023-05-21T04:17:36.900Z,17.55
2023-05-21T04:20:06.586Z,19.17
2023-05-21T04:22:36.795Z,18.23
2023-05-21T04:25:05.873Z,18.67
2023-05-21T04:27:36.104Z,16.20
2023-05-21T04:30:05.876Z,17.17
2023-05-21T04:32:36.502Z,16.85
2023-05-21T04:35:05.883Z,13.20
2023-05-21T04:37:36.584Z,15.98
2023-05-21T04:40:05.682Z,15.95
2023-05-21T04:42:35.536Z,13.18
2023-05-21T04:45:04.601Z,17.30
2023-05-21T04:47:36.900Z,15.52
2023-05-21T04:50:06.124Z,17.63
2023-05-21T04:52:36.296Z,16.80
2023-05-21T04:55:05.720Z,17.80
2023-05-21T04:57:34.794Z,16.23
2023-05-21T05:00:04.497Z,16.88
2023-05-21T05:02:33.575Z,15.02
2023-05-21T05:05:02.769Z,15.27
2023-05-21T05:07:31.793Z,16.23
2023-05-21T05:10:00.782Z,14.13
2023-05-21T05:12:29.770Z,16.45
2023-05-21T05:14:58.736Z,15.23
2023-05-21T05:17:27.857Z,15.32
2023-05-21T05:19:56.848Z,15.40
2023-05-21T05:22:25.822Z,13.98
2023-05-21T05:24:54.789Z,13.30
2023-05-21T05:27:23.755Z,15.27
2023-05-21T05:29:52.728Z,14.02
2023-05-21T05:32:21.756Z,15.55
2023-05-21T05:34:50.795Z,15.95
2023-05-21T05:37:19.862Z,13.95
2023-05-21T05:39:48.868Z,17.23
2023-05-21T05:42:17.870Z,15.60
2023-05-21T05:44:46.849Z,16.15
2023-05-21T05:47:15.820Z,14.77
2023-05-21T05:49:45.233Z,15.82
2023-05-21T05:52:14.316Z,13.18
2023-05-21T05:54:43.417Z,11.90
2023-05-21T05:57:12.565Z,17.60
2023-05-21T05:59:41.586Z,16.42
2023-05-21T06:02:10.562Z,16.10
2023-05-21T06:04:39.573Z,13.82
2023-05-21T06:07:08.614Z,15.38
2023-05-21T06:09:37.653Z,13.93
2023-05-21T06:12:08.664Z,15.40
2023-05-21T06:14:38.583Z,16.30
2023-05-21T06:17:07.797Z,16.88
2023-05-21T06:19:36.753Z,15.65
2023-05-21T06:22:06.303Z,17.42
2023-05-21T06:24:35.247Z,16.85
2023-05-21T06:27:05.576Z,17.13
2023-05-21T06:29:34.619Z,13.68
2023-05-21T06:32:03.678Z,16.15
2023-05-21T06:34:32.624Z,16.85
2023-05-21T06:37:01.683Z,15.02
2023-05-21T06:39:30.651Z,18.05
2023-05-21T06:41:59.626Z,15.35
2023-05-21T06:44:28.611Z,16.23
2023-05-21T06:46:57.632Z,16.20
2023-05-21T06:49:26.642Z,15.38
2023-05-21T06:51:55.674Z,15.07
2023-05-21T06:54:26.714Z,14.90
2023-05-21T06:56:56.625Z,13.68
2023-05-21T06:59:25.639Z,15.10
2023-05-21T07:01:54.633Z,15.90
2023-05-21T07:04:23.707Z,13.18
2023-05-21T07:06:53.935Z,15.15
2023-05-21T07:09:22.968Z,14.73
2023-05-21T07:11:51.980Z,15.18
2023-05-21T07:14:21.306Z,16.50
2023-05-21T07:16:50.328Z,16.33
2023-05-21T07:19:19.396Z,13.60
2023-05-21T07:21:48.776Z,13.02
2023-05-21T07:24:17.879Z,17.15
2023-05-21T07:26:47.034Z,12.50
2023-05-21T07:29:16.079Z,13.23
2023-05-21T07:31:45.086Z,14.63
2023-05-21T07:34:14.209Z,14.10
2023-05-21T07:36:43.240Z,12.73
2023-05-21T07:39:12.580Z,15.68
2023-05-21T07:41:41.650Z,12.43
2023-05-21T07:44:10.941Z,13.57
2023-05-21T07:46:40.175Z,13.15
2023-05-21T07:49:09.330Z,13.60
2023-05-21T07:51:38.403Z,15.30
2023-05-21T07:54:07.402Z,11.63
2023-05-21T07:56:36.426Z,15.15
2023-05-21T07:59:05.573Z,11.60
2023-05-21T08:01:34.776Z,14.63
2023-05-21T08:04:07.244Z,13.07
2023-05-21T08:06:36.366Z,13.87
2023-05-21T08:09:06.292Z,13.18
2023-05-21T08:11:35.359Z,12.68
2023-05-21T08:14:04.340Z,14.82
2023-05-21T08:16:33.533Z,11.77
2023-05-21T08:19:02.744Z,12.30
2023-05-21T08:21:32.254Z,12.10
2023-05-21T08:24:01.968Z,11.18
2023-05-21T08:26:31.071Z,13.82
2023-05-21T08:29:00.154Z,10.57
2023-05-21T08:31:29.716Z,12.15
2023-05-21T08:33:58.802Z,13.50
2023-05-21T08:36:27.861Z,13.25
2023-05-21T08:38:56.964Z,10.85
2023-05-21T08:41:26.233Z,12.82
2023-05-21T08:43:59.192Z,12.05
2023-05-21T08:46:31.020Z,10.52
2023-05-21T08:49:01.054Z,9.57
2023-05-21T08:51:30.511Z,11.07
2023-05-21T08:53:59.844Z,11.35
2023-05-21T08:56:29.242Z,11.65
2023-05-21T08:58:58.487Z,13.30
2023-05-21T09:01:27.924Z,12.93
2023-05-21T09:04:05.054Z,13.73
2023-05-21T09:06:37.753Z,12.63
2023-05-21T09:09:17.009Z,14.10
2023-05-21T09:11:48.075Z,12.40
2023-05-21T09:14:17.524Z,12.52
2023-05-21T09:16:49.770Z,12.40
2023-05-21T09:19:18.833Z,12.73
2023-05-21T09:21:47.839Z,11.88
2023-05-21T09:24:16.885Z,14.00
2023-05-21T09:26:46.033Z,12.40
2023-05-21T09:29:15.036Z,12.73
2023-05-21T09:31:47.113Z,11.07
2023-05-21T09:34:16.442Z,11.15
2023-05-21T09:36:48.743Z,12.02
2023-05-21T09:39:37.732Z,12.07
2023-05-21T09:42:06.826Z,11.57
2023-05-21T09:44:36.877Z,13.05
2023-05-21T09:47:05.962Z,13.82
2023-05-21T09:49:34.983Z,12.88
2023-05-21T09:52:04.105Z,13.52
2023-05-21T09:54:34.877Z,11.07
2023-05-21T09:57:06.674Z,11.57
2023-05-21T09:59:39.408Z,11.15
2023-05-21T10:02:22.396Z,12.13
2023-05-21T10:04:52.528Z,12.00
2023-05-21T10:07:27.840Z,10.45
2023-05-21T10:09:58.358Z,9.38
2023-05-21T10:12:27.586Z,12.55
2023-05-21T10:15:02.925Z,11.43
2023-05-21T10:17:35.103Z,10.27
2023-05-21T10:20:05.434Z,8.77
2023-05-21T10:22:34.530Z,9.75
2023-05-21T10:25:05.176Z,9.55
2023-05-21T10:27:34.408Z,9.15
2023-05-21T10:30:03.880Z,9.43
2023-05-21T10:32:33.524Z,9.00
2023-05-21T10:35:04.011Z,9.60
2023-05-21T10:37:33.126Z,9.13
2023-05-21T10:40:02.328Z,10.13
2023-05-21T10:42:34.319Z,12.20
2023-05-21T10:45:12.160Z,11.20
2023-05-21T10:47:52.155Z,10.55
2023-05-21T10:50:29.338Z,9.77
2023-05-21T10:53:16.391Z,9.88
2023-05-21T10:55:45.384Z,9.30
2023-05-21T10:58:34.512Z,11.35
2023-05-21T11:01:03.979Z,9.73
2023-05-21T11:03:36.673Z,10.77
2023-05-21T11:06:10.052Z,11.95
2023-05-21T11:08:40.374Z,9.23
2023-05-21T11:11:09.620Z,10.73
2023-05-21T11:13:51.920Z,14.63
2023-05-21T11:16:23.643Z,11.18
2023-05-21T11:18:52.638Z,12.63
2023-05-21T11:21:24.371Z,12.73
2023-05-21T11:23:53.385Z,11.25
2023-05-21T11:26:24.031Z,10.52
2023-05-21T11:28:53.733Z,12.38
2023-05-21T11:31:27.325Z,12.27
2023-05-21T11:34:12.028Z,11.98
2023-05-21T11:36:41.867Z,10.75
2023-05-21T11:39:16.958Z,11.65
2023-05-21T11:42:04.517Z,12.45
2023-05-21T11:44:46.694Z,12.57
2023-05-21T11:47:20.227Z,11.55
2023-05-21T11:52:18.113Z,11.93
2023-05-21T11:54:59.886Z,11.70
2023-05-21T11:57:33.334Z,10.93
2023-05-21T12:00:03.195Z,12.13
2023-05-21T12:02:35.146Z,13.95
2023-05-21T12:05:04.206Z,12.63
2023-05-21T12:07:33.222Z,13.98
2023-05-21T12:10:02.481Z,12.85
2023-05-21T12:12:41.792Z,13.57
2023-05-21T12:15:15.106Z,12.85
2023-05-21T12:17:44.235Z,11.43
2023-05-21T12:20:18.080Z,12.25
2023-05-21T12:22:47.236Z,11.02
2023-05-21T12:25:16.239Z,12.05
2023-05-21T12:27:46.548Z,12.10
2023-05-21T12:30:15.778Z,12.00
2023-05-21T12:32:48.124Z,11.38
2023-05-21T12:35:24.517Z,10.20
2023-05-21T12:37:54.003Z,10.45
2023-05-21T12:40:23.737Z,11.32
2023-05-21T12:42:53.158Z,11.27
2023-05-21T12:45:24.151Z,10.75
2023-05-21T12:47:57.581Z,11.02
2023-05-21T12:53:00.730Z,10.32
2023-05-21T12:55:30.133Z,12.40
2023-05-21T12:58:09.908Z,10.90
2023-05-21T13:00:39.388Z,11.32
2023-05-21T13:03:08.753Z,11.07
2023-05-21T13:05:37.876Z,12.77
2023-05-21T13:08:07.041Z,14.73
2023-05-21T13:10:36.220Z,12.00
2023-05-21T13:13:05.389Z,12.40
2023-05-21T13:15:34.603Z,11.23
2023-05-21T13:18:04.284Z,11.30
2023-05-21T13:20:33.374Z,11.30
2023-05-21T13:23:04.701Z,10.93
2023-05-21T13:25:35.038Z,12.40
2023-05-21T13:28:05.026Z,12.63
2023-05-21T13:30:37.316Z,12.45
2023-05-21T13:33:08.071Z,15.77
2023-05-21T13:35:37.217Z,14.20
2023-05-21T13:38:06.291Z,13.02
2023-05-21T13:40:37.367Z,12.88
2023-05-21T13:43:07.811Z,15.73
2023-05-21T13:45:37.334Z,12.90
2023-05-21T13:48:06.546Z,13.43
2023-05-21T13:50:36.068Z,12.70
2023-05-21T13:53:05.337Z,12.05
2023-05-21T13:55:34.381Z,13.68
2023-05-21T13:58:03.425Z,12.82
2023-05-21T14:00:32.513Z,14.55
2023-05-21T14:03:01.859Z,11.75
2023-05-21T14:05:31.037Z,14.13
2023-05-21T14:08:00.133Z,11.82
2023-05-21T14:10:29.198Z,11.68
2023-05-21T14:13:07.455Z,12.32
2023-05-21T14:15:44.968Z,12.85
2023-05-21T14:18:13.955Z,13.15
2023-05-21T14:20:43.867Z,15.27
2023-05-21T14:23:13.171Z,15.55
2023-05-21T14:25:42.962Z,14.25
2023-05-21T14:28:11.991Z,12.45
2023-05-21T14:30:41.020Z,12.15
2023-05-21T14:33:10.068Z,14.55
2023-05-21T14:35:39.119Z,14.98
2023-05-21T14:38:08.180Z,14.88
2023-05-21T14:40:37.265Z,14.85
2023-05-21T14:43:07.269Z,16.80
2023-05-21T14:45:37.121Z,16.33
2023-05-21T14:48:13.420Z,16.73
2023-05-21T14:50:42.615Z,13.38
2023-05-21T14:53:12.313Z,11.52
2023-05-21T14:55:41.591Z,13.82
2023-05-21T14:58:11.025Z,13.13
2023-05-21T15:00:40.971Z,14.75
2023-05-21T15:03:10.555Z,12.65
2023-05-21T15:05:39.876Z,13.35
2023-05-21T15:08:11.189Z,13.40
2023-05-21T15:10:40.457Z,13.05
2023-05-21T15:13:09.529Z,13.90
2023-05-21T15:15:39.024Z,13.38
2023-05-21T15:18:08.389Z,13.82
2023-05-21T15:20:37.515Z,12.70
2023-05-21T15:23:16.159Z,12.80
2023-05-21T15:25:46.851Z,12.63
2023-05-21T15:28:15.865Z,12.75
2023-05-21T15:30:44.886Z,16.27
2023-05-21T15:33:13.932Z,15.98
2023-05-21T15:35:43.688Z,14.20
2023-05-21T15:38:13.274Z,13.88
2023-05-21T15:40:45.042Z,12.43
2023-05-21T15:43:14.026Z,14.55
2023-05-21T15:45:43.557Z,14.77
2023-05-21T15:48:14.184Z,13.05
2023-05-21T15:50:43.397Z,14.15
2023-05-21T15:53:12.877Z,11.75
2023-05-21T15:55:41.930Z,13.43
2023-05-21T15:58:10.957Z,12.73
2023-05-21T16:00:40.089Z,13.63
2023-05-21T16:03:09.767Z,13.75
2023-05-21T16:05:39.026Z,13.50
2023-05-21T16:08:08.381Z,12.90
2023-05-21T16:10:37.439Z,12.95
2023-05-21T16:13:06.501Z,12.45
2023-05-21T16:15:36.161Z,12.48
2023-05-21T16:18:05.386Z,14.93
2023-05-21T16:20:34.979Z,12.02
2023-05-21T16:23:05.178Z,12.27
2023-05-21T16:25:35.281Z,13.13
2023-05-21T16:28:04.488Z,12.38
2023-05-21T16:30:33.543Z,12.38
2023-05-21T16:33:02.662Z,12.27
2023-05-21T16:35:33.426Z,12.05
2023-05-21T16:38:02.436Z,12.02
2023-05-21T16:40:32.586Z,13.23
2023-05-21T16:43:02.324Z,12.15
2023-05-21T16:45:36.779Z,14.55
2023-05-21T16:48:05.934Z,14.55
2023-05-21T16:50:35.244Z,13.07
2023-05-21T16:53:04.408Z,12.90
2023-05-21T16:55:37.535Z,12.70
2023-05-21T16:58:07.313Z,13.93
2023-05-21T17:00:36.266Z,12.57
2023-05-21T17:03:05.444Z,13.90
2023-05-21T17:05:34.745Z,13.32
2023-05-21T17:08:04.355Z,12.68
2023-05-21T17:10:34.989Z,13.23
2023-05-21T17:13:17.680Z,12.05
2023-05-21T17:15:51.214Z,12.27
2023-05-21T17:18:20.425Z,13.40
2023-05-21T17:20:49.471Z,13.82
2023-05-21T17:23:18.625Z,14.77
2023-05-21T17:25:47.847Z,11.25
2023-05-21T17:28:16.838Z,13.13
2023-05-21T17:30:46.870Z,11.98
2023-05-21T17:33:17.847Z,13.00
2023-05-21T17:35:46.969Z,11.27
2023-05-21T17:38:16.001Z,10.85
2023-05-21T17:40:45.036Z,12.75
2023-05-21T17:43:14.040Z,12.85
2023-05-21T17:45:43.032Z,12.98
2023-05-21T17:48:13.493Z,11.43
2023-05-21T17:50:43.104Z,11.68
2023-05-21T17:53:12.118Z,14.98
2023-05-21T17:55:41.477Z,11.50
2023-05-21T17:58:11.528Z,11.93
2023-05-21T18:00:40.612Z,13.45
2023-05-21T18:03:09.704Z,12.63
2023-05-21T18:05:39.052Z,13.10
2023-05-21T18:08:08.614Z,11.52
2023-05-21T18:10:37.732Z,13.65
2023-05-21T18:13:06.821Z,12.93
2023-05-21T18:15:36.400Z,12.52
2023-05-21T18:18:05.655Z,11.55
2023-05-21T18:20:35.687Z,12.00
2023-05-21T18:23:04.905Z,12.02
2023-05-21T18:25:33.870Z,12.90
2023-05-21T18:28:03.352Z,13.23
2023-05-21T18:30:32.360Z,12.60
2023-05-21T18:33:01.463Z,12.93
2023-05-21T18:35:32.615Z,14.80
2023-05-21T18:38:01.654Z,12.88
2023-05-21T18:40:30.903Z,15.20
2023-05-21T18:43:00.313Z,14.30
2023-05-21T18:45:29.567Z,14.25
2023-05-21T18:47:58.625Z,13.98
2023-05-21T18:50:27.856Z,15.60
2023-05-21T18:53:00.052Z,13.93
2023-05-21T18:55:29.058Z,14.13
2023-05-21T18:57:58.146Z,19.38
2023-05-21T19:00:27.729Z,15.25
2023-05-21T19:02:57.767Z,16.23
2023-05-21T19:05:27.310Z,14.23
2023-05-21T19:07:59.221Z,13.93
2023-05-21T19:10:28.731Z,15.48
2023-05-21T19:12:58.840Z,14.82
2023-05-21T19:15:27.889Z,19.90
2023-05-21T19:17:57.006Z,15.15
2023-05-21T19:20:27.742Z,14.75
2023-05-21T19:22:56.876Z,19.15
2023-05-21T19:25:26.060Z,16.48
2023-05-21T19:27:55.182Z,13.65
2023-05-21T19:30:24.238Z,15.05
2023-05-21T19:32:53.354Z,15.80
2023-05-21T19:35:23.861Z,16.25
2023-05-21T19:37:53.039Z,14.02
2023-05-21T19:40:24.170Z,13.52
2023-05-21T19:42:53.240Z,15.88
2023-05-21T19:45:22.999Z,17.45
2023-05-21T19:47:52.716Z,15.43
2023-05-21T19:50:21.764Z,14.40
2023-05-21T19:52:50.819Z,15.63
2023-05-21T19:55:21.621Z,15.30
2023-05-21T19:57:51.037Z,14.95
2023-05-21T20:00:20.358Z,14.95
2023-05-21T20:02:49.565Z,14.43
2023-05-21T20:05:20.131Z,13.88
2023-05-21T20:07:49.192Z,15.73
2023-05-21T20:10:18.215Z,15.70
2023-05-21T20:12:47.578Z,14.18
2023-05-21T20:15:16.584Z,15.32
2023-05-21T20:17:46.214Z,14.38
2023-05-21T20:20:15.234Z,13.88
2023-05-21T20:22:44.391Z,14.25
2023-05-21T20:25:13.352Z,14.52
2023-05-21T20:27:43.030Z,14.35
2023-05-21T20:30:12.327Z,15.13
2023-05-21T20:32:41.415Z,14.23
2023-05-21T20:35:11.419Z,15.40
2023-05-21T20:37:40.451Z,14.32
2023-05-21T20:40:12.154Z,15.32
2023-05-21T20:42:43.215Z,15.02
2023-05-21T20:45:14.360Z,13.55
2023-05-21T20:47:44.014Z,13.50
2023-05-21T20:50:13.713Z,15.05
2023-05-21T20:52:44.415Z,14.93
2023-05-21T20:55:14.848Z,15.95
2023-05-21T20:57:43.933Z,13.77
2023-05-21T21:00:13.465Z,13.50
2023-05-21T21:02:42.586Z,15.02
2023-05-21T21:05:11.808Z,16.83
2023-05-21T21:07:41.584Z,14.98
2023-05-21T21:10:10.865Z,14.63
2023-05-21T21:12:39.860Z,14.23
2023-05-21T21:15:09.242Z,14.38
2023-05-21T21:17:38.294Z,13.25
2023-05-21T21:20:09.115Z,14.20
2023-05-21T21:22:38.302Z,14.05
2023-05-21T21:25:07.661Z,13.55
2023-05-21T21:27:36.675Z,14.23
2023-05-21T21:30:06.227Z,15.25
2023-05-21T21:32:35.316Z,13.48
2023-05-21T21:35:04.637Z,14.95
2023-05-21T21:37:33.681Z,13.18
2023-05-21T21:40:02.701Z,13.30
2023-05-21T21:42:31.777Z,13.60
2023-05-21T21:45:00.809Z,15.88
2023-05-21T21:47:29.969Z,15.02
2023-05-21T21:49:58.967Z,15.95
2023-05-21T21:52:29.018Z,13.45
2023-05-21T21:54:58.000Z,15.95
2023-05-21T21:57:29.023Z,15.77
2023-05-21T21:59:58.015Z,17.35
2023-05-21T22:02:27.346Z,15.40
2023-05-21T22:04:57.265Z,16.27
2023-05-21T22:07:26.361Z,17.65
2023-05-21T22:09:55.345Z,15.52
2023-05-21T22:12:24.405Z,15.23
2023-05-21T22:14:53.827Z,15.52
2023-05-21T22:17:22.919Z,15.23
2023-05-21T22:19:52.470Z,14.10
2023-05-21T22:22:21.475Z,15.23
2023-05-21T22:24:50.562Z,16.70
2023-05-21T22:27:19.634Z,13.98
2023-05-21T22:29:48.736Z,18.00
2023-05-21T22:32:17.730Z,18.98
2023-05-21T22:34:46.797Z,17.23
2023-05-21T22:37:15.962Z,20.05
2023-05-21T22:39:44.914Z,17.90
2023-05-21T22:42:13.936Z,19.90
2023-05-21T22:44:43.090Z,18.85
2023-05-21T22:47:12.166Z,18.70
2023-05-21T22:49:43.979Z,22.73
2023-05-21T22:52:13.000Z,17.00
2023-05-21T22:54:42.101Z,16.80
2023-05-21T22:57:11.147Z,21.40
2023-05-21T22:59:40.085Z,21.40
2023-05-21T23:02:09.297Z,18.75
2023-05-21T23:04:43.731Z,16.88
2023-05-21T23:07:13.957Z,19.42
2023-05-21T23:09:43.249Z,19.52
2023-05-21T23:12:12.754Z,20.15
2023-05-21T23:14:41.802Z,18.88
2023-05-21T23:17:11.281Z,21.70
2023-05-21T23:19:40.798Z,20.08
2023-05-21T23:22:09.926Z,25.50
2023-05-21T23:24:40.493Z,23.77
2023-05-21T23:27:09.690Z,23.10
2023-05-21T23:29:38.702Z,22.13
2023-05-21T23:32:07.993Z,22.80
2023-05-21T23:34:37.421Z,24.77
2023-05-21T23:37:06.595Z,22.90
2023-05-21T23:39:35.595Z,20.88
2023-05-21T23:42:04.900Z,20.42
2023-05-21T23:44:33.964Z,22.00
2023-05-21T23:47:02.977Z,18.40
2023-05-21T23:49:32.012Z,19.45
2023-05-21T23:52:01.016Z,20.17
2023-05-21T23:54:30.056Z,20.65
2023-05-21T23:56:59.153Z,20.17
2023-05-21T23:59:28.156Z,20.38
